Time;durP1;ratioP1;P1;durP2;ratioP2;P2;SDS_P1;SDS_P2;PMS_P1;PMS_P2;Temp;Humidity;BMP_temperature;BMP_pressure;BME280_temperature;BME280_humidity;BME280_pressure;Samples;Min_cycle;Max_cycle;Signal;HPM_P1;HPM_P2
2022/10/19 00:01:14;;;;;;;5.80;3.13;;;15.40;98.00;;;;;;5112028;28;20454;-68
2022/10/19 00:03:43;;;;;;;3.97;2.40;;;15.30;98.00;;;;;;5112187;28;21039;-68
2022/10/19 00:06:16;;;;;;;4.60;3.00;;;15.30;98.00;;;;;;5110576;28;20466;-68
2022/10/19 00:08:44;;;;;;;8.60;3.30;;;15.40;98.00;;;;;;5112123;28;20455;-68
2022/10/19 00:11:12;;;;;;;7.60;3.63;;;15.40;98.00;;;;;;5111905;28;20949;-68
2022/10/19 00:13:40;;;;;;;5.50;3.23;;;15.40;98.00;;;;;;5111971;28;20459;-68
2022/10/19 00:16:14;;;;;;;4.77;3.03;;;15.40;98.00;;;;;;5111753;28;20462;-68
2022/10/19 00:18:43;;;;;;;5.83;3.57;;;15.30;98.00;;;;;;5111781;28;20463;-68
2022/10/19 00:21:14;;;;;;;5.10;3.00;;;15.40;98.00;;;;;;5111842;28;20451;-69
2022/10/19 00:23:41;;;;;;;5.50;3.10;;;15.40;98.00;;;;;;5111796;28;20487;-69
2022/10/19 00:26:09;;;;;;;5.80;3.60;;;15.40;98.00;;;;;;5111746;28;20451;-68
2022/10/19 00:28:37;;;;;;;5.37;3.17;;;15.50;98.00;;;;;;5111618;28;20462;-68
2022/10/19 00:31:07;;;;;;;5.73;2.93;;;15.40;98.00;;;;;;5111791;28;20451;-68
2022/10/19 00:33:36;;;;;;;5.97;3.10;;;15.50;98.00;;;;;;5111772;28;20459;-69
2022/10/19 00:36:04;;;;;;;4.97;2.80;;;15.50;98.00;;;;;;5111726;28;20595;-68
2022/10/19 00:38:36;;;;;;;4.37;2.67;;;15.60;98.00;;;;;;5112069;28;20458;-68
2022/10/19 00:41:04;;;;;;;4.97;3.10;;;15.50;98.00;;;;;;5111800;28;20455;-68
2022/10/19 00:43:32;;;;;;;4.40;2.77;;;15.50;98.00;;;;;;5111619;28;20537;-68
2022/10/19 00:45:59;;;;;;;5.20;2.90;;;15.70;98.00;;;;;;5111783;28;20481;-68
2022/10/19 00:48:32;;;;;;;5.77;2.90;;;15.60;98.00;;;;;;5111452;28;20976;-68
2022/10/19 00:51:01;;;;;;;5.60;2.67;;;15.50;98.00;;;;;;5110467;28;20479;-68
2022/10/19 00:53:30;;;;;;;4.93;2.70;;;15.30;98.00;;;;;;5111571;28;20447;-68
2022/10/19 00:55:58;;;;;;;3.40;2.60;;;15.20;98.00;;;;;;5111470;28;20451;-69
2022/10/19 00:58:25;;;;;;;3.40;2.33;;;15.10;98.00;;;;;;5111207;28;20519;-69
2022/10/19 01:00:53;;;;;;;3.07;2.50;;;15.10;98.00;;;;;;5111358;28;20451;-68
2022/10/19 01:03:21;;;;;;;6.93;2.70;;;15.10;98.00;;;;;;5110094;28;20532;-68
2022/10/19 01:05:51;;;;;;;4.50;2.60;;;15.20;98.00;;;;;;5112853;28;20451;-68
2022/10/19 01:08:21;;;;;;;3.93;2.60;;;15.30;98.00;;;;;;5114128;28;20462;-68
2022/10/19 01:10:57;;;;;;;6.30;2.80;;;15.30;98.00;;;;;;5115127;28;20467;-68
2022/10/19 01:13:36;;;;;;;5.63;2.63;;;15.40;98.00;;;;;;5114528;28;20461;-68
2022/10/19 01:16:11;;;;;;;4.93;2.80;;;15.40;98.00;;;;;;5115419;28;20882;-68
2022/10/19 01:18:45;;;;;;;3.93;2.73;;;15.40;98.00;;;;;;5115504;28;20556;-68
2022/10/19 01:21:26;;;;;;;7.80;2.97;;;15.60;98.00;;;;;;5113971;28;20515;-69
2022/10/19 01:24:23;;;;;;;6.63;2.57;;;15.60;98.00;;;;;;5113828;28;20482;-68
2022/10/19 01:27:13;;;;;;;4.73;2.87;;;15.50;98.00;;;;;;5114950;28;20553;-68
2022/10/19 01:30:17;;;;;;;3.70;2.50;;;15.30;98.00;;;;;;5115265;28;20462;-68
2022/10/19 01:33:12;;;;;;;5.83;3.20;;;15.60;98.00;;;;;;5051744;28;20464;-68
2022/10/19 01:35:44;;;;;;;6.37;2.87;;;15.70;98.00;;;;;;5091747;28;20466;-69
2022/10/19 01:38:22;;;;;;;5.37;3.07;;;15.60;98.00;;;;;;5115014;28;20485;-69
2022/10/19 01:40:57;;;;;;;6.00;2.90;;;15.50;98.00;;;;;;5115106;28;20457;-68
2022/10/19 01:43:33;;;;;;;5.07;2.60;;;15.30;98.00;;;;;;5114661;28;20486;-69
2022/10/19 01:46:10;;;;;;;3.53;2.70;;;15.20;98.00;;;;;;5114706;28;20998;-69
2022/10/19 01:48:40;;;;;;;5.40;3.03;;;15.10;98.00;;;;;;5114650;28;21023;-68
2022/10/19 01:51:13;;;;;;;6.57;3.20;;;14.90;98.00;;;;;;5114609;28;20462;-68
2022/10/19 01:53:44;;;;;;;9.50;3.10;;;14.90;98.00;;;;;;5114287;28;20485;-68
2022/10/19 01:56:13;;;;;;;4.77;2.47;;;14.80;98.00;;;;;;5114374;28;20455;-69
2022/10/19 01:58:44;;;;;;;6.10;2.90;;;14.80;98.00;;;;;;5114206;28;20516;-68
2022/10/19 02:01:15;;;;;;;5.03;2.53;;;14.80;98.00;;;;;;5114334;28;20868;-68
2022/10/19 02:03:43;;;;;;;5.33;3.20;;;14.80;98.00;;;;;;5114613;28;20980;-68
2022/10/19 02:06:13;;;;;;;4.50;2.53;;;14.80;98.00;;;;;;5114261;28;20463;-68
2022/10/19 02:08:44;;;;;;;4.17;2.40;;;15.00;98.00;;;;;;5114253;28;20956;-69
2022/10/19 02:11:12;;;;;;;3.70;2.40;;;15.10;98.00;;;;;;5112816;28;20455;-68
2022/10/19 02:13:48;;;;;;;4.50;2.17;;;15.20;98.00;;;;;;5114173;28;20463;-69
2022/10/19 02:16:23;;;;;;;5.10;2.57;;;15.10;98.00;;;;;;5114173;28;20460;-68
2022/10/19 02:18:53;;;;;;;6.77;2.77;;;15.00;98.00;;;;;;5113280;28;20468;-68
2022/10/19 02:21:20;;;;;;;4.53;2.93;;;15.20;98.00;;;;;;5113833;28;20459;-69
2022/10/19 02:23:47;;;;;;;4.70;2.77;;;15.20;98.00;;;;;;5112717;28;20594;-68
2022/10/19 02:26:14;;;;;;;6.47;3.00;;;15.40;98.00;;;;;;5113841;28;20464;-68
2022/10/19 02:28:41;;;;;;;5.13;2.80;;;15.50;98.00;;;;;;5114007;28;20461;-68
2022/10/19 02:31:09;;;;;;;5.77;2.93;;;15.50;98.00;;;;;;5113723;28;20514;-68
2022/10/19 02:33:37;;;;;;;3.20;2.20;;;15.60;98.00;;;;;;5113883;28;20515;-68
2022/10/19 02:36:05;;;;;;;5.30;2.73;;;15.40;98.00;;;;;;5113672;28;20508;-68
2022/10/19 02:38:32;;;;;;;6.47;2.80;;;15.40;98.00;;;;;;5113858;28;20458;-68
2022/10/19 02:41:08;;;;;;;4.50;2.80;;;15.30;98.00;;;;;;5113781;28;20458;-68
2022/10/19 02:43:38;;;;;;;4.60;2.80;;;15.30;98.00;;;;;;5113618;28;20489;-68
2022/10/19 02:46:10;;;;;;;3.63;2.30;;;15.50;98.00;;;;;;5113709;28;20459;-68
2022/10/19 02:48:41;;;;;;;6.20;2.97;;;15.50;98.00;;;;;;5113476;28;20463;-68
2022/10/19 02:51:27;;;;;;;5.07;2.83;;;15.60;98.00;;;;;;5113302;28;20461;-68
2022/10/19 02:53:56;;;;;;;4.40;2.97;;;15.40;98.00;;;;;;5113397;28;20489;-68
2022/10/19 02:56:23;;;;;;;4.20;2.83;;;15.40;98.00;;;;;;5112054;28;20845;-68
2022/10/19 02:58:51;;;;;;;3.50;2.23;;;15.20;98.00;;;;;;5113005;28;20463;-68
2022/10/19 03:01:19;;;;;;;3.80;2.40;;;15.20;98.00;;;;;;5113191;28;20466;-68
2022/10/19 03:03:49;;;;;;;5.03;2.77;;;15.10;98.00;;;;;;5113281;28;20482;-68
2022/10/19 03:06:17;;;;;;;4.40;2.80;;;15.10;98.00;;;;;;5112983;28;20457;-68
2022/10/19 03:08:44;;;;;;;4.47;2.83;;;15.10;98.00;;;;;;5113211;28;20455;-69
2022/10/19 03:11:11;;;;;;;6.17;2.83;;;15.20;98.00;;;;;;5113024;28;20459;-68
2022/10/19 03:13:40;;;;;;;4.27;2.73;;;15.20;98.00;;;;;;5112955;28;20452;-68
2022/10/19 03:16:09;;;;;;;4.87;2.67;;;15.30;98.00;;;;;;5112904;28;20648;-68
2022/10/19 03:18:36;;;;;;;4.20;2.77;;;15.20;98.00;;;;;;5112822;28;20465;-68
2022/10/19 03:21:10;;;;;;;5.30;2.67;;;15.30;98.00;;;;;;5112873;28;20571;-68
2022/10/19 03:23:37;;;;;;;3.83;2.53;;;15.40;98.00;;;;;;5112784;28;20463;-69
2022/10/19 03:26:05;;;;;;;5.63;2.80;;;15.20;98.00;;;;;;5112575;28;20470;-69
2022/10/19 03:28:32;;;;;;;4.10;2.30;;;15.00;98.00;;;;;;5112501;28;20966;-69
2022/10/19 03:31:00;;;;;;;3.40;2.80;;;15.00;98.00;;;;;;5112528;28;20457;-68
2022/10/19 03:33:27;;;;;;;4.50;2.70;;;15.00;98.00;;;;;;5111898;28;20885;-68
2022/10/19 03:36:14;;;;;;;5.90;3.00;;;15.00;98.00;;;;;;5112610;28;20455;-68
2022/10/19 03:38:43;;;;;;;3.87;2.53;;;15.00;98.00;;;;;;5112841;28;20542;-68
2022/10/19 03:41:11;;;;;;;6.00;3.00;;;15.00;98.00;;;;;;5111274;28;20459;-68
2022/10/19 03:43:40;;;;;;;3.67;2.70;;;15.00;98.00;;;;;;5112480;28;20807;-68
2022/10/19 03:46:07;;;;;;;4.70;2.40;;;14.90;98.00;;;;;;5112241;28;20461;-68
2022/10/19 03:48:35;;;;;;;4.53;2.53;;;14.80;98.00;;;;;;5112336;28;20860;-68
2022/10/19 03:51:05;;;;;;;5.50;2.73;;;14.80;98.00;;;;;;5112159;28;20455;-68
2022/10/19 03:53:34;;;;;;;5.77;2.80;;;14.70;98.00;;;;;;5112449;28;20463;-68
2022/10/19 03:56:03;;;;;;;5.30;2.83;;;14.50;98.00;;;;;;5112247;28;20453;-68
2022/10/19 03:58:33;;;;;;;4.33;2.87;;;14.50;98.00;;;;;;5111937;28;20466;-69
2022/10/19 04:01:01;;;;;;;3.23;2.43;;;14.50;98.00;;;;;;5111912;28;20490;-68
2022/10/19 04:03:28;;;;;;;3.80;2.53;;;14.50;98.00;;;;;;5110771;28;20834;-68
2022/10/19 04:06:05;;;;;;;6.93;3.43;;;14.40;98.00;;;;;;5111898;28;20485;-69
2022/10/19 04:08:34;;;;;;;3.83;2.47;;;14.30;98.00;;;;;;5111890;28;20459;-68
2022/10/19 04:11:03;;;;;;;6.67;2.87;;;14.30;98.00;;;;;;5111758;28;20959;-68
2022/10/19 04:13:31;;;;;;;3.20;2.20;;;14.30;98.00;;;;;;5110644;28;20455;-69
2022/10/19 04:15:58;;;;;;;4.83;2.90;;;14.30;98.00;;;;;;5111836;28;20451;-68
2022/10/19 04:18:25;;;;;;;3.33;2.20;;;14.50;98.00;;;;;;5111915;28;20451;-68
2022/10/19 04:20:56;;;;;;;2.57;1.80;;;14.50;98.00;;;;;;5111830;28;20462;-68
2022/10/19 04:23:23;;;;;;;5.67;2.47;;;14.50;98.00;;;;;;5111760;28;20501;-68
2022/10/19 04:25:52;;;;;;;5.70;2.87;;;14.50;98.00;;;;;;5110388;28;20482;-68
2022/10/19 04:28:19;;;;;;;6.17;3.13;;;14.50;98.00;;;;;;5111736;28;20462;-68
2022/10/19 04:30:46;;;;;;;4.47;2.77;;;14.50;98.00;;;;;;5111668;28;20492;-68
2022/10/19 04:33:13;;;;;;;4.40;2.60;;;14.40;98.00;;;;;;5111471;28;20455;-68
2022/10/19 04:35:40;;;;;;;4.53;2.70;;;14.20;98.00;;;;;;5110614;28;20449;-68
2022/10/19 04:38:07;;;;;;;3.87;2.13;;;14.10;98.00;;;;;;5111789;28;20850;-68
2022/10/19 04:40:38;;;;;;;4.03;2.10;;;14.00;98.00;;;;;;5113040;28;20453;-68
2022/10/19 04:43:07;;;;;;;4.90;2.60;;;14.20;98.00;;;;;;5114717;28;20536;-68
2022/10/19 04:45:35;;;;;;;2.80;2.40;;;14.10;98.00;;;;;;5115725;28;20558;-68
2022/10/19 04:48:03;;;;;;;4.67;2.70;;;14.00;98.00;;;;;;5115647;28;20483;-69
2022/10/19 04:50:30;;;;;;;4.77;2.70;;;13.90;98.00;;;;;;5115997;28;20861;-69
2022/10/19 04:52:57;;;;;;;3.10;2.43;;;13.90;98.00;;;;;;5115578;28;20457;-68
2022/10/19 04:55:24;;;;;;;4.40;2.43;;;14.00;98.00;;;;;;5114848;28;20549;-68
2022/10/19 04:57:51;;;;;;;4.50;2.67;;;14.00;98.00;;;;;;5115252;28;21031;-68
2022/10/19 05:00:19;;;;;;;4.70;2.70;;;14.00;98.00;;;;;;5115573;28;20456;-69
2022/10/19 05:02:48;;;;;;;3.93;2.80;;;13.90;98.00;;;;;;5115608;28;20972;-69
2022/10/19 05:05:15;;;;;;;5.33;2.67;;;13.90;98.00;;;;;;5115573;28;20488;-69
2022/10/19 05:07:42;;;;;;;4.33;2.40;;;13.90;98.00;;;;;;5115469;28;20477;-69
2022/10/19 05:10:11;;;;;;;4.60;2.63;;;14.00;98.00;;;;;;5115423;28;20453;-69
2022/10/19 05:12:38;;;;;;;6.07;3.00;;;14.10;98.00;;;;;;5114217;28;20455;-69
2022/10/19 05:15:05;;;;;;;5.83;2.60;;;14.10;98.00;;;;;;5115306;28;20469;-69
2022/10/19 05:17:34;;;;;;;6.13;2.90;;;14.00;98.00;;;;;;5113969;28;20460;-69
2022/10/19 05:20:02;;;;;;;4.70;2.60;;;14.00;98.00;;;;;;5115220;28;20460;-69
2022/10/19 05:22:29;;;;;;;3.97;2.50;;;14.00;98.00;;;;;;5114019;28;20455;-69
2022/10/19 05:24:56;;;;;;;7.13;2.80;;;14.00;98.00;;;;;;5115041;28;20486;-69
2022/10/19 05:27:24;;;;;;;3.60;2.37;;;14.10;98.00;;;;;;5114875;28;20544;-69
2022/10/19 05:29:51;;;;;;;6.40;3.03;;;14.10;98.00;;;;;;5115147;28;20480;-70
2022/10/19 05:32:18;;;;;;;5.40;2.67;;;14.20;98.00;;;;;;5114954;28;20610;-69
2022/10/19 05:34:46;;;;;;;3.53;2.40;;;14.20;98.00;;;;;;5115045;28;20473;-68
2022/10/19 05:37:13;;;;;;;5.77;3.00;;;14.30;98.00;;;;;;5115037;28;20838;-69
2022/10/19 05:39:43;;;;;;;4.17;2.53;;;14.20;98.00;;;;;;5115037;28;20510;-69
2022/10/19 05:42:11;;;;;;;6.60;3.33;;;14.10;98.00;;;;;;5114944;28;20456;-69
2022/10/19 05:44:38;;;;;;;4.87;2.70;;;14.10;98.00;;;;;;5114878;28;20833;-69
2022/10/19 05:47:05;;;;;;;5.27;2.60;;;14.10;98.00;;;;;;5114724;28;20446;-69
2022/10/19 05:49:35;;;;;;;4.17;2.60;;;14.20;98.00;;;;;;5114622;28;21012;-69
2022/10/19 05:52:04;;;;;;;3.63;2.40;;;14.30;98.00;;;;;;5114413;28;20545;-69
2022/10/19 05:54:31;;;;;;;3.57;2.67;;;14.30;98.00;;;;;;5114543;28;20466;-69
2022/10/19 05:56:58;;;;;;;7.10;3.17;;;14.40;98.00;;;;;;5114439;28;20455;-69
2022/10/19 05:59:25;;;;;;;6.73;2.77;;;14.40;98.00;;;;;;5114504;28;20833;-65
2022/10/19 06:01:52;;;;;;;6.63;3.10;;;14.50;98.00;;;;;;5096193;28;20996;-66
2022/10/19 06:04:19;;;;;;;5.13;3.03;;;14.40;98.00;;;;;;5114308;28;20483;-66
2022/10/19 06:06:47;;;;;;;8.47;3.37;;;14.50;98.00;;;;;;5114218;28;21001;-65
2022/10/19 06:09:16;;;;;;;4.37;2.23;;;14.60;98.00;;;;;;5114183;28;20472;-66
2022/10/19 06:11:43;;;;;;;4.80;2.93;;;14.60;98.00;;;;;;5114137;28;20488;-66
2022/10/19 06:14:13;;;;;;;6.20;2.97;;;14.60;98.00;;;;;;5113011;28;20879;-67
2022/10/19 06:16:42;;;;;;;4.43;2.83;;;14.70;98.00;;;;;;5113981;28;20469;-66
2022/10/19 06:19:09;;;;;;;3.20;2.40;;;14.90;98.00;;;;;;5114097;28;20453;-66
2022/10/19 06:21:37;;;;;;;4.47;2.90;;;15.00;98.00;;;;;;5114031;28;20466;-66
2022/10/19 06:24:06;;;;;;;4.63;2.53;;;15.00;98.00;;;;;;5112585;28;20455;-65
2022/10/19 06:26:35;;;;;;;6.27;3.10;;;14.90;98.00;;;;;;5112586;28;20839;-65
2022/10/19 06:29:04;;;;;;;4.13;2.73;;;14.90;98.00;;;;;;5114168;28;20528;-65
2022/10/19 06:31:32;;;;;;;5.30;2.87;;;14.90;98.00;;;;;;5113732;28;20470;-66
2022/10/19 06:33:59;;;;;;;5.03;2.47;;;14.90;98.00;;;;;;5114003;28;20498;-66
2022/10/19 06:36:29;;;;;;;4.63;2.60;;;14.90;98.00;;;;;;5113833;28;20458;-65
2022/10/19 06:38:58;;;;;;;2.60;2.27;;;14.90;98.00;;;;;;5113836;28;20458;-65
2022/10/19 06:41:25;;;;;;;4.63;2.70;;;15.00;98.00;;;;;;5113428;28;20956;-65
2022/10/19 06:44:01;;;;;;;5.67;2.50;;;15.00;98.00;;;;;;5113814;28;20459;-65
2022/10/19 06:46:28;;;;;;;5.77;2.73;;;15.10;98.00;;;;;;5113540;28;20478;-66
2022/10/19 06:48:58;;;;;;;7.00;3.60;;;15.10;98.00;;;;;;5113581;28;20458;-66
2022/10/19 06:51:25;;;;;;;5.20;2.93;;;15.10;98.00;;;;;;5113391;28;20469;-65
2022/10/19 06:53:53;;;;;;;4.07;2.40;;;15.10;98.00;;;;;;5113226;28;20457;-66
2022/10/19 06:56:20;;;;;;;4.20;2.77;;;15.10;98.00;;;;;;5113189;28;20498;-65
2022/10/19 06:58:48;;;;;;;6.93;3.10;;;15.10;98.00;;;;;;5113069;28;20459;-66
2022/10/19 07:01:17;;;;;;;5.67;2.90;;;15.10;98.00;;;;;;5113071;28;20461;-65
2022/10/19 07:03:44;;;;;;;4.97;2.83;;;15.20;98.00;;;;;;5112744;28;20473;-65
2022/10/19 07:06:13;;;;;;;6.40;2.83;;;15.40;98.00;;;;;;5112997;28;20489;-66
2022/10/19 07:08:41;;;;;;;7.00;2.80;;;15.40;98.00;;;;;;5113297;28;20455;-66
2022/10/19 07:11:10;;;;;;;3.83;2.50;;;15.40;98.00;;;;;;5108023;27;20938;-66
2022/10/19 07:13:37;;;;;;;7.40;3.40;;;15.50;98.00;;;;;;5129316;27;20473;-65
2022/10/19 07:16:10;;;;;;;3.77;2.57;;;15.60;98.00;;;;;;5126703;27;20814;-65
2022/10/19 07:18:40;;;;;;;4.60;2.63;;;15.60;98.00;;;;;;5121544;27;20467;-65
2022/10/19 07:21:10;;;;;;;4.23;2.40;;;15.60;98.00;;;;;;5126937;27;20455;-65
2022/10/19 07:23:39;;;;;;;9.20;3.90;;;15.60;98.00;;;;;;5120377;27;20965;-65
2022/10/19 07:26:08;;;;;;;6.00;2.33;;;15.50;98.00;;;;;;5111477;27;20486;-66
2022/10/19 07:28:35;;;;;;;5.40;2.50;;;15.50;98.00;;;;;;5110606;27;20494;-66
2022/10/19 07:31:08;;;;;;;3.30;1.97;;;15.50;98.00;;;;;;5125592;27;20450;-66
2022/10/19 07:33:35;;;;;;;4.57;2.17;;;15.70;98.00;;;;;;5110373;27;20962;-65
2022/10/19 07:36:05;;;;;;;4.00;2.33;;;15.70;98.00;;;;;;5125083;27;20454;-65
2022/10/19 07:38:34;;;;;;;3.07;1.90;;;15.80;98.00;;;;;;5111123;27;20491;-66
2022/10/19 07:41:03;;;;;;;4.87;3.00;;;15.90;98.00;;;;;;5124964;27;20559;-66
2022/10/19 07:43:30;;;;;;;3.37;2.43;;;15.90;98.00;;;;;;5114907;27;20492;-63
2022/10/19 07:46:01;;;;;;;3.17;2.10;;;16.00;98.00;;;;;;5125340;27;20493;-66
2022/10/19 07:48:28;;;;;;;4.73;2.63;;;16.00;98.00;;;;;;5125083;27;20883;-65
2022/10/19 07:50:56;;;;;;;4.63;2.97;;;16.00;98.00;;;;;;5111138;27;20462;-65
2022/10/19 07:53:24;;;;;;;5.37;2.80;;;16.10;98.00;;;;;;5110851;27;20459;-65
2022/10/19 07:55:52;;;;;;;5.10;2.90;;;16.10;98.00;;;;;;5124167;27;20458;-65
2022/10/19 07:58:19;;;;;;;5.47;2.30;;;16.20;98.00;;;;;;5125068;27;20472;-65
2022/10/19 08:00:46;;;;;;;3.27;2.00;;;16.20;98.00;;;;;;5125680;27;20461;-65
2022/10/19 08:03:13;;;;;;;4.53;2.77;;;16.30;98.00;;;;;;5119457;27;20813;-65
2022/10/19 08:05:40;;;;;;;3.60;2.23;;;16.40;98.00;;;;;;5106309;27;20493;-64
2022/10/19 08:08:07;;;;;;;3.50;2.03;;;16.40;98.00;;;;;;5120924;27;20471;-65
2022/10/19 08:10:36;;;;;;;3.87;2.10;;;16.40;98.00;;;;;;5110491;27;20450;-65
2022/10/19 08:13:03;;;;;;;3.23;2.13;;;16.50;98.00;;;;;;5114892;27;20454;-64
2022/10/19 08:15:31;;;;;;;3.23;2.03;;;16.50;98.00;;;;;;5105389;27;20438;-65
2022/10/19 08:17:59;;;;;;;4.13;1.90;;;16.60;98.00;;;;;;5114635;27;20451;-65
2022/10/19 08:20:27;;;;;;;2.70;1.97;;;16.60;98.00;;;;;;5124292;27;20473;-65
2022/10/19 08:22:54;;;;;;;3.00;1.83;;;16.70;98.00;;;;;;5124306;27;20459;-65
2022/10/19 08:25:21;;;;;;;3.37;1.77;;;16.70;98.00;;;;;;5123391;27;20814;-65
2022/10/19 08:27:49;;;;;;;3.87;2.07;;;16.70;98.00;;;;;;5105319;27;20459;-65
2022/10/19 08:30:16;;;;;;;2.93;2.30;;;16.80;98.00;;;;;;5120344;27;20464;-65
2022/10/19 08:32:43;;;;;;;2.43;1.50;;;16.80;98.00;;;;;;5119381;27;21190;-65
2022/10/19 08:35:10;;;;;;;3.30;2.03;;;16.80;98.00;;;;;;5109573;28;20458;-65
2022/10/19 08:37:37;;;;;;;2.63;1.80;;;16.80;98.00;;;;;;5110268;28;20459;-64
2022/10/19 08:40:06;;;;;;;1.80;1.53;;;16.90;98.00;;;;;;5109607;28;20893;-64
2022/10/19 08:42:46;;;;;;;5.17;1.90;;;16.90;98.00;;;;;;5111237;28;21031;-65
2022/10/19 08:45:33;;;;;;;2.17;1.70;;;17.00;98.00;;;;;;5113597;28;20454;-65
2022/10/19 08:48:12;;;;;;;1.67;1.40;;;17.30;98.00;;;;;;5118468;27;20451;-64
2022/10/19 08:50:43;;;;;;;2.40;1.77;;;17.50;98.00;;;;;;5119417;27;20459;-65
2022/10/19 08:53:15;;;;;;;2.73;1.70;;;17.80;98.00;;;;;;5109785;28;20475;-65
2022/10/19 08:55:50;;;;;;;3.20;1.73;;;17.80;98.00;;;;;;5111351;28;20463;-65
2022/10/19 08:58:32;;;;;;;2.67;1.60;;;18.00;98.00;;;;;;5111173;28;20474;-62
2022/10/19 09:01:06;;;;;;;3.27;1.93;;;18.00;98.00;;;;;;5110284;28;20948;-63
2022/10/19 09:03:41;;;;;;;2.13;1.67;;;18.20;98.00;;;;;;5110122;28;20459;-62
2022/10/19 09:06:20;;;;;;;2.30;1.70;;;18.30;98.00;;;;;;5111199;28;20474;-63
2022/10/19 09:08:48;;;;;;;2.90;1.70;;;18.40;98.00;;;;;;5105226;28;20459;-63
2022/10/19 09:11:19;;;;;;;2.00;1.63;;;18.70;98.00;;;;;;5090855;28;20510;-64
2022/10/19 09:13:48;;;;;;;3.13;2.20;;;18.70;98.00;;;;;;5090904;28;20459;-65
2022/10/19 09:16:20;;;;;;;2.30;1.90;;;18.60;98.00;;;;;;5099935;28;20470;-64
2022/10/19 09:18:48;;;;;;;3.90;2.27;;;18.50;98.00;;;;;;5111112;28;20454;-65
2022/10/19 09:21:20;;;;;;;3.30;1.97;;;18.40;98.00;;;;;;5111056;28;20462;-65
2022/10/19 09:23:55;;;;;;;2.33;1.90;;;18.30;98.00;;;;;;5110029;28;20466;-65
2022/10/19 09:26:25;;;;;;;1.73;1.60;;;18.20;98.00;;;;;;5111398;28;20556;-64
2022/10/19 09:28:57;;;;;;;6.73;2.00;;;18.10;98.00;;;;;;5114642;28;20897;-65
2022/10/19 09:31:35;;;;;;;3.40;2.00;;;18.20;98.00;;;;;;5114854;28;20459;-65
2022/10/19 09:34:06;;;;;;;3.83;2.20;;;18.10;98.00;;;;;;5114990;27;20511;-65
2022/10/19 09:36:47;;;;;;;2.30;1.50;;;18.00;98.00;;;;;;5114895;28;20450;-65
2022/10/19 09:39:14;;;;;;;3.20;2.23;;;18.10;98.00;;;;;;5113741;28;20941;-65
2022/10/19 09:41:46;;;;;;;6.73;2.20;;;18.10;98.00;;;;;;5115020;28;20455;-65
2022/10/19 09:44:14;;;;;;;4.07;2.30;;;18.00;98.00;;;;;;5114947;28;20450;-64
2022/10/19 09:46:50;;;;;;;3.07;2.13;;;18.00;98.00;;;;;;5115157;28;20486;-65
2022/10/19 09:49:18;;;;;;;4.20;2.30;;;18.00;98.00;;;;;;5114839;28;20446;-65
2022/10/19 09:51:49;;;;;;;2.70;1.90;;;17.90;98.00;;;;;;5114571;28;20462;-65
2022/10/19 09:54:36;;;;;;;5.20;2.20;;;17.80;98.00;;;;;;5114620;28;20458;-65
2022/10/19 09:57:04;;;;;;;3.40;2.00;;;17.90;98.00;;;;;;5114507;28;20454;-64
2022/10/19 09:59:34;;;;;;;4.37;2.13;;;17.80;98.00;;;;;;5114576;28;20878;-66
2022/10/19 10:02:16;;;;;;;2.90;1.70;;;17.90;98.00;;;;;;5114248;28;20454;-66
2022/10/19 10:04:47;;;;;;;2.70;1.87;;;17.90;98.00;;;;;;5114404;28;20451;-65
2022/10/19 10:07:17;;;;;;;3.83;2.10;;;17.90;98.00;;;;;;5114168;28;20874;-64
2022/10/19 10:09:45;;;;;;;3.80;2.10;;;17.80;98.00;;;;;;5114323;28;20451;-65
2022/10/19 10:12:15;;;;;;;2.37;1.97;;;17.90;98.00;;;;;;5114479;28;20454;-65
2022/10/19 10:14:44;;;;;;;2.57;1.80;;;17.90;98.00;;;;;;5114329;28;20470;-65
2022/10/19 10:17:20;;;;;;;4.50;2.43;;;17.80;98.00;;;;;;5114039;28;20455;-65
2022/10/19 10:20:04;;;;;;;3.40;2.10;;;17.80;98.00;;;;;;5114060;28;20458;-66
2022/10/19 10:22:33;;;;;;;3.13;2.40;;;17.80;98.00;;;;;;5114098;28;20512;-65
2022/10/19 10:25:00;;;;;;;3.90;2.40;;;17.80;98.00;;;;;;5114146;28;20459;-66
2022/10/19 10:27:33;;;;;;;3.87;2.30;;;17.90;98.00;;;;;;5113862;28;20508;-65
2022/10/19 10:30:06;;;;;;;2.73;2.20;;;18.00;98.00;;;;;;5113859;28;20455;-65
2022/10/19 10:32:40;;;;;;;4.70;2.60;;;18.10;98.00;;;;;;5114020;28;20516;-65
2022/10/19 10:35:17;;;;;;;3.63;2.23;;;18.30;98.00;;;;;;5113838;28;20442;-65
2022/10/19 10:37:46;;;;;;;4.20;2.13;;;18.40;98.00;;;;;;5113261;28;20520;-65
2022/10/19 10:40:22;;;;;;;3.17;2.33;;;18.50;98.00;;;;;;5113565;28;20507;-65
2022/10/19 10:42:51;;;;;;;2.60;1.90;;;18.60;98.00;;;;;;5113968;28;20531;-65
2022/10/19 10:45:25;;;;;;;3.30;2.10;;;18.60;98.00;;;;;;5113801;28;20523;-65
2022/10/19 10:47:54;;;;;;;2.17;1.70;;;18.50;98.00;;;;;;5113683;28;20489;-65
2022/10/19 10:50:23;;;;;;;3.13;2.00;;;18.40;98.00;;;;;;5113625;28;20468;-65
2022/10/19 10:53:02;;;;;;;2.67;1.90;;;18.40;98.00;;;;;;5113610;28;20459;-65
2022/10/19 10:55:30;;;;;;;3.50;1.90;;;18.40;98.00;;;;;;5113507;28;20459;-66
2022/10/19 10:58:15;;;;;;;2.53;1.57;;;18.50;98.00;;;;;;5113038;28;20489;-65
2022/10/19 11:00:42;;;;;;;1.90;1.80;;;18.50;98.00;;;;;;5113518;28;20562;-64
2022/10/19 11:03:17;;;;;;;2.67;1.73;;;18.50;98.00;;;;;;5113135;28;20961;-65
2022/10/19 11:05:48;;;;;;;3.30;1.83;;;18.50;98.00;;;;;;5113144;28;20454;-64
2022/10/19 11:08:22;;;;;;;5.40;2.00;;;18.40;98.00;;;;;;5113276;28;20502;-65
2022/10/19 11:10:55;;;;;;;2.13;1.60;;;18.30;98.00;;;;;;5113031;28;20454;-66
2022/10/19 11:13:27;;;;;;;2.40;1.77;;;18.20;98.00;;;;;;5113034;28;20455;-65
2022/10/19 11:15:57;;;;;;;3.63;2.50;;;18.30;98.00;;;;;;5113212;28;20455;-65
2022/10/19 11:18:30;;;;;;;3.83;2.53;;;18.20;98.00;;;;;;5112848;28;20473;-65
2022/10/19 11:21:04;;;;;;;6.50;3.00;;;18.20;98.00;;;;;;5111615;28;20455;-65
2022/10/19 11:23:45;;;;;;;2.13;1.80;;;18.10;98.00;;;;;;5112911;28;20507;-66
2022/10/19 11:26:35;;;;;;;5.80;2.63;;;18.10;98.00;;;;;;5112845;28;20455;-65
2022/10/19 11:29:16;;;;;;;6.57;3.10;;;18.10;98.00;;;;;;5112735;28;20972;-65
2022/10/19 11:31:48;;;;;;;2.70;2.00;;;18.20;98.00;;;;;;5112649;28;20459;-65
2022/10/19 11:34:44;;;;;;;3.10;2.10;;;18.30;98.00;;;;;;5112587;28;20497;-64
2022/10/19 11:37:20;;;;;;;2.50;2.00;;;18.50;98.00;;;;;;5111228;28;20451;-65
2022/10/19 11:40:05;;;;;;;2.17;1.67;;;18.90;98.00;;;;;;5112491;28;20516;-64
2022/10/19 11:42:47;;;;;;;3.40;1.80;;;19.50;98.00;;;;;;5111225;28;20461;-65
2022/10/19 11:45:25;;;;;;;5.17;2.53;;;20.00;98.00;;;;;;5112594;28;20459;-66
2022/10/19 11:48:06;;;;;;;3.47;2.30;;;20.30;98.00;;;;;;5112618;28;21091;-64
2022/10/19 11:50:45;;;;;;;4.07;2.30;;;20.40;98.00;;;;;;5111249;28;20458;-65
2022/10/19 11:53:21;;;;;;;3.43;2.27;;;20.60;98.00;;;;;;5112459;28;20451;-65
2022/10/19 11:55:58;;;;;;;5.80;2.40;;;20.60;98.00;;;;;;5112405;28;20462;-65
2022/10/19 11:58:37;;;;;;;4.63;2.37;;;20.60;98.00;;;;;;5112020;28;20550;-66
2022/10/19 12:01:19;;;;;;;3.50;2.30;;;21.00;98.00;;;;;;5112291;28;20462;-65
2022/10/19 12:04:03;;;;;;;5.50;2.50;;;21.40;98.00;;;;;;5111244;28;20459;-65
2022/10/19 12:06:39;;;;;;;4.70;2.70;;;21.60;98.00;;;;;;5112203;28;20462;-65
2022/10/19 12:09:20;;;;;;;3.93;2.47;;;21.90;98.00;;;;;;5112152;28;20454;-65
2022/10/19 12:12:01;;;;;;;4.90;2.40;;;22.30;98.00;;;;;;5112153;28;20466;-65
2022/10/19 12:14:34;;;;;;;4.07;2.50;;;22.80;98.00;;;;;;5112092;28;20463;-65
2022/10/19 12:17:07;;;;;;;3.83;2.23;;;23.30;98.00;;;;;;5112113;28;20462;-65
2022/10/19 12:19:42;;;;;;;3.60;2.30;;;23.60;98.00;;;;;;5111925;28;20454;-65
2022/10/19 12:22:16;;;;;;;4.20;2.50;;;24.00;98.00;;;;;;5110776;28;20496;-65
2022/10/19 12:24:43;;;;;;;3.53;1.83;;;24.30;98.00;;;;;;5111755;28;20458;-66
2022/10/19 12:27:13;;;;;;;3.17;2.10;;;24.70;98.00;;;;;;5110512;28;20544;-65
2022/10/19 12:29:43;;;;;;;3.27;2.30;;;25.00;98.00;;;;;;5111822;28;21021;-66
2022/10/19 12:32:15;;;;;;;3.70;2.07;;;25.30;98.00;;;;;;5111982;28;20808;-65
2022/10/19 12:34:50;;;;;;;3.07;2.13;;;25.30;98.00;;;;;;5110557;28;20467;-66
2022/10/19 12:37:26;;;;;;;3.87;2.47;;;25.60;98.00;;;;;;5111644;28;20446;-66
2022/10/19 12:39:59;;;;;;;3.10;1.90;;;25.70;97.40;;;;;;5111796;28;20454;-66
2022/10/19 12:42:32;;;;;;;2.63;1.90;;;25.50;97.10;;;;;;5111843;28;20864;-65
2022/10/19 12:45:18;;;;;;;4.03;2.10;;;25.40;97.10;;;;;;5112118;28;20451;-65
2022/10/19 12:48:24;;;;;;;3.10;2.17;;;25.60;96.80;;;;;;5111803;28;20482;-65
2022/10/19 12:51:06;;;;;;;4.70;2.53;;;25.70;96.90;;;;;;5111825;28;21015;-66
2022/10/19 12:53:39;;;;;;;3.60;2.37;;;25.40;95.50;;;;;;5111516;28;20455;-66
2022/10/19 12:56:10;;;;;;;2.40;1.90;;;25.00;96.00;;;;;;5111809;28;20466;-65
2022/10/19 12:58:45;;;;;;;2.70;2.07;;;24.70;97.30;;;;;;5111392;28;20470;-66
2022/10/19 13:01:20;;;;;;;2.63;1.87;;;24.30;98.00;;;;;;5112228;28;20466;-65
2022/10/19 13:03:49;;;;;;;3.47;2.20;;;24.20;98.00;;;;;;5115726;28;20496;-66
2022/10/19 13:06:19;;;;;;;2.40;2.00;;;23.80;98.00;;;;;;5114383;28;20450;-66
2022/10/19 13:08:56;;;;;;;2.40;1.77;;;23.60;98.00;;;;;;5115447;28;20569;-65